sensor_id;sensor_type;location;lat;lon;timestamp;P1;durP1;ratioP1;P2;durP2;ratioP2
72601;SDS011;60644;55.858;37.390;2023-12-04T00:00:24;7.13;;;1.83;;
72601;SDS011;60644;55.858;37.390;2023-12-04T00:02:50;8.32;;;2.35;;
72601;SDS011;60644;55.858;37.390;2023-12-04T00:05:16;9.97;;;2.53;;
72601;SDS011;60644;55.858;37.390;2023-12-04T00:07:42;9.65;;;2.20;;
72601;SDS011;60644;55.858;37.390;2023-12-04T00:10:07;6.37;;;1.83;;
72601;SDS011;60644;55.858;37.390;2023-12-04T00:12:33;8.50;;;2.40;;
72601;SDS011;60644;55.858;37.390;2023-12-04T00:14:59;8.53;;;2.37;;
72601;SDS011;60644;55.858;37.390;2023-12-04T00:17:25;9.25;;;3.10;;
72601;SDS011;60644;55.858;37.390;2023-12-04T00:19:50;8.50;;;2.67;;
72601;SDS011;60644;55.858;37.390;2023-12-04T00:22:16;9.63;;;3.35;;
72601;SDS011;60644;55.858;37.390;2023-12-04T00:24:42;8.93;;;2.67;;
72601;SDS011;60644;55.858;37.390;2023-12-04T00:27:08;8.57;;;2.13;;
72601;SDS011;60644;55.858;37.390;2023-12-04T00:29:33;9.10;;;2.47;;
72601;SDS011;60644;55.858;37.390;2023-12-04T00:31:59;11.52;;;2.78;;
72601;SDS011;60644;55.858;37.390;2023-12-04T00:34:24;10.90;;;2.67;;
72601;SDS011;60644;55.858;37.390;2023-12-04T00:36:50;8.33;;;2.33;;
72601;SDS011;60644;55.858;37.390;2023-12-04T00:39:16;9.35;;;3.00;;
72601;SDS011;60644;55.858;37.390;2023-12-04T00:41:41;8.63;;;2.70;;
72601;SDS011;60644;55.858;37.390;2023-12-04T00:44:07;8.40;;;2.40;;
72601;SDS011;60644;55.858;37.390;2023-12-04T00:46:32;8.55;;;2.38;;
72601;SDS011;60644;55.858;37.390;2023-12-04T00:48:58;9.30;;;2.33;;
72601;SDS011;60644;55.858;37.390;2023-12-04T00:51:24;7.47;;;2.10;;
72601;SDS011;60644;55.858;37.390;2023-12-04T00:53:49;9.98;;;3.85;;
72601;SDS011;60644;55.858;37.390;2023-12-04T00:56:15;9.33;;;2.07;;
72601;SDS011;60644;55.858;37.390;2023-12-04T00:58:40;6.88;;;2.00;;
72601;SDS011;60644;55.858;37.390;2023-12-04T01:01:06;11.67;;;3.07;;
72601;SDS011;60644;55.858;37.390;2023-12-04T01:03:32;10.47;;;3.87;;
72601;SDS011;60644;55.858;37.390;2023-12-04T01:05:58;8.68;;;2.65;;
72601;SDS011;60644;55.858;37.390;2023-12-04T01:08:24;11.38;;;3.00;;
72601;SDS011;60644;55.858;37.390;2023-12-04T01:10:50;9.27;;;2.67;;
72601;SDS011;60644;55.858;37.390;2023-12-04T01:13:16;8.02;;;2.17;;
72601;SDS011;60644;55.858;37.390;2023-12-04T01:15:41;7.07;;;2.10;;
72601;SDS011;60644;55.858;37.390;2023-12-04T01:18:08;10.10;;;2.50;;
72601;SDS011;60644;55.858;37.390;2023-12-04T01:20:34;8.45;;;2.53;;
72601;SDS011;60644;55.858;37.390;2023-12-04T01:23:00;9.77;;;2.43;;
72601;SDS011;60644;55.858;37.390;2023-12-04T01:25:25;8.32;;;2.63;;
72601;SDS011;60644;55.858;37.390;2023-12-04T01:27:51;7.50;;;2.20;;
72601;SDS011;60644;55.858;37.390;2023-12-04T01:30:17;10.25;;;2.70;;
72601;SDS011;60644;55.858;37.390;2023-12-04T01:32:43;11.03;;;3.33;;
72601;SDS011;60644;55.858;37.390;2023-12-04T01:35:08;10.15;;;2.85;;
72601;SDS011;60644;55.858;37.390;2023-12-04T01:37:34;9.47;;;2.43;;
72601;SDS011;60644;55.858;37.390;2023-12-04T01:39:59;9.20;;;2.83;;
72601;SDS011;60644;55.858;37.390;2023-12-04T01:42:26;9.07;;;3.08;;
72601;SDS011;60644;55.858;37.390;2023-12-04T01:44:51;10.03;;;3.10;;
72601;SDS011;60644;55.858;37.390;2023-12-04T01:47:17;8.52;;;2.88;;
72601;SDS011;60644;55.858;37.390;2023-12-04T01:49:43;8.43;;;2.55;;
72601;SDS011;60644;55.858;37.390;2023-12-04T01:52:09;13.03;;;3.43;;
72601;SDS011;60644;55.858;37.390;2023-12-04T01:54:35;10.00;;;3.03;;
72601;SDS011;60644;55.858;37.390;2023-12-04T01:57:01;9.23;;;2.70;;
72601;SDS011;60644;55.858;37.390;2023-12-04T01:59:27;9.32;;;3.08;;
72601;SDS011;60644;55.858;37.390;2023-12-04T02:01:53;9.35;;;2.80;;
72601;SDS011;60644;55.858;37.390;2023-12-04T02:04:21;8.02;;;2.33;;
72601;SDS011;60644;55.858;37.390;2023-12-04T02:06:53;11.07;;;2.30;;
72601;SDS011;60644;55.858;37.390;2023-12-04T02:09:19;6.80;;;1.92;;
72601;SDS011;60644;55.858;37.390;2023-12-04T02:11:45;9.32;;;2.35;;
72601;SDS011;60644;55.858;37.390;2023-12-04T02:14:11;9.25;;;2.78;;
72601;SDS011;60644;55.858;37.390;2023-12-04T02:16:39;9.57;;;3.00;;
72601;SDS011;60644;55.858;37.390;2023-12-04T02:19:11;12.02;;;3.47;;
72601;SDS011;60644;55.858;37.390;2023-12-04T02:21:43;8.65;;;2.97;;
72601;SDS011;60644;55.858;37.390;2023-12-04T02:24:16;7.82;;;2.28;;
72601;SDS011;60644;55.858;37.390;2023-12-04T02:26:44;11.68;;;3.92;;
72601;SDS011;60644;55.858;37.390;2023-12-04T02:29:17;10.17;;;2.87;;
72601;SDS011;60644;55.858;37.390;2023-12-04T02:31:44;10.75;;;3.40;;
72601;SDS011;60644;55.858;37.390;2023-12-04T02:34:10;9.27;;;2.33;;
72601;SDS011;60644;55.858;37.390;2023-12-04T02:36:38;7.07;;;2.47;;
72601;SDS011;60644;55.858;37.390;2023-12-04T02:39:04;10.07;;;3.63;;
72601;SDS011;60644;55.858;37.390;2023-12-04T02:41:30;9.90;;;3.50;;
72601;SDS011;60644;55.858;37.390;2023-12-04T02:43:56;9.30;;;2.63;;
72601;SDS011;60644;55.858;37.390;2023-12-04T02:46:21;9.23;;;3.03;;
72601;SDS011;60644;55.858;37.390;2023-12-04T02:48:47;11.38;;;4.10;;
72601;SDS011;60644;55.858;37.390;2023-12-04T02:51:12;10.50;;;3.75;;
72601;SDS011;60644;55.858;37.390;2023-12-04T02:53:38;9.73;;;2.87;;
72601;SDS011;60644;55.858;37.390;2023-12-04T02:56:04;12.43;;;4.40;;
72601;SDS011;60644;55.858;37.390;2023-12-04T02:58:29;10.32;;;2.50;;
72601;SDS011;60644;55.858;37.390;2023-12-04T03:00:55;12.85;;;3.00;;
72601;SDS011;60644;55.858;37.390;2023-12-04T03:03:21;11.02;;;3.40;;
72601;SDS011;60644;55.858;37.390;2023-12-04T03:05:46;10.27;;;3.50;;
72601;SDS011;60644;55.858;37.390;2023-12-04T03:08:12;10.20;;;3.07;;
72601;SDS011;60644;55.858;37.390;2023-12-04T03:10:37;8.20;;;2.75;;
72601;SDS011;60644;55.858;37.390;2023-12-04T03:13:03;10.97;;;3.33;;
72601;SDS011;60644;55.858;37.390;2023-12-04T03:15:29;7.43;;;2.60;;
72601;SDS011;60644;55.858;37.390;2023-12-04T03:17:55;10.90;;;2.50;;
72601;SDS011;60644;55.858;37.390;2023-12-04T03:20:24;12.82;;;4.15;;
72601;SDS011;60644;55.858;37.390;2023-12-04T03:22:50;10.02;;;3.28;;
72601;SDS011;60644;55.858;37.390;2023-12-04T03:25:16;10.43;;;2.88;;
72601;SDS011;60644;55.858;37.390;2023-12-04T03:27:41;8.30;;;2.77;;
72601;SDS011;60644;55.858;37.390;2023-12-04T03:30:07;10.55;;;3.55;;
72601;SDS011;60644;55.858;37.390;2023-12-04T03:32:33;9.23;;;3.27;;
72601;SDS011;60644;55.858;37.390;2023-12-04T03:34:59;9.38;;;2.72;;
72601;SDS011;60644;55.858;37.390;2023-12-04T03:37:25;8.80;;;2.78;;
72601;SDS011;60644;55.858;37.390;2023-12-04T03:39:51;11.68;;;3.53;;
72601;SDS011;60644;55.858;37.390;2023-12-04T03:42:17;9.52;;;3.10;;
72601;SDS011;60644;55.858;37.390;2023-12-04T03:44:42;10.80;;;3.27;;
72601;SDS011;60644;55.858;37.390;2023-12-04T03:47:08;9.40;;;2.65;;
72601;SDS011;60644;55.858;37.390;2023-12-04T03:49:35;13.27;;;3.80;;
72601;SDS011;60644;55.858;37.390;2023-12-04T03:52:00;10.03;;;2.70;;
72601;SDS011;60644;55.858;37.390;2023-12-04T03:54:27;11.98;;;3.22;;
72601;SDS011;60644;55.858;37.390;2023-12-04T03:56:53;10.95;;;2.72;;
72601;SDS011;60644;55.858;37.390;2023-12-04T03:59:19;12.00;;;3.10;;
72601;SDS011;60644;55.858;37.390;2023-12-04T04:01:45;11.32;;;3.53;;
72601;SDS011;60644;55.858;37.390;2023-12-04T04:04:11;7.87;;;2.63;;
72601;SDS011;60644;55.858;37.390;2023-12-04T04:06:36;9.05;;;3.05;;
72601;SDS011;60644;55.858;37.390;2023-12-04T04:09:04;10.47;;;3.30;;
72601;SDS011;60644;55.858;37.390;2023-12-04T04:11:30;7.97;;;2.85;;
72601;SDS011;60644;55.858;37.390;2023-12-04T04:13:56;10.25;;;3.08;;
72601;SDS011;60644;55.858;37.390;2023-12-04T04:16:21;9.73;;;3.00;;
72601;SDS011;60644;55.858;37.390;2023-12-04T04:18:47;11.68;;;4.07;;
72601;SDS011;60644;55.858;37.390;2023-12-04T04:21:13;9.23;;;2.23;;
72601;SDS011;60644;55.858;37.390;2023-12-04T04:23:38;10.93;;;3.40;;
72601;SDS011;60644;55.858;37.390;2023-12-04T04:26:04;11.43;;;4.50;;
72601;SDS011;60644;55.858;37.390;2023-12-04T04:28:30;7.80;;;2.88;;
72601;SDS011;60644;55.858;37.390;2023-12-04T04:30:56;10.30;;;3.03;;
72601;SDS011;60644;55.858;37.390;2023-12-04T04:33:22;8.18;;;2.78;;
72601;SDS011;60644;55.858;37.390;2023-12-04T04:35:48;12.52;;;3.47;;
72601;SDS011;60644;55.858;37.390;2023-12-04T04:38:13;13.53;;;3.50;;
72601;SDS011;60644;55.858;37.390;2023-12-04T04:40:43;8.60;;;2.83;;
72601;SDS011;60644;55.858;37.390;2023-12-04T04:43:12;11.63;;;3.58;;
72601;SDS011;60644;55.858;37.390;2023-12-04T04:45:41;9.05;;;2.65;;
72601;SDS011;60644;55.858;37.390;2023-12-04T04:48:07;9.23;;;2.87;;
72601;SDS011;60644;55.858;37.390;2023-12-04T04:50:33;12.55;;;3.78;;
72601;SDS011;60644;55.858;37.390;2023-12-04T04:52:58;10.53;;;3.33;;
72601;SDS011;60644;55.858;37.390;2023-12-04T04:55:24;9.63;;;2.83;;
72601;SDS011;60644;55.858;37.390;2023-12-04T04:57:50;9.67;;;2.57;;
72601;SDS011;60644;55.858;37.390;2023-12-04T05:00:16;11.13;;;3.88;;
72601;SDS011;60644;55.858;37.390;2023-12-04T05:02:42;11.00;;;4.00;;
72601;SDS011;60644;55.858;37.390;2023-12-04T05:05:08;11.43;;;3.63;;
72601;SDS011;60644;55.858;37.390;2023-12-04T05:07:34;15.68;;;4.93;;
72601;SDS011;60644;55.858;37.390;2023-12-04T05:09:59;13.77;;;4.30;;
72601;SDS011;60644;55.858;37.390;2023-12-04T05:12:25;12.53;;;4.50;;
72601;SDS011;60644;55.858;37.390;2023-12-04T05:14:51;14.43;;;3.10;;
72601;SDS011;60644;55.858;37.390;2023-12-04T05:17:17;13.87;;;4.30;;
72601;SDS011;60644;55.858;37.390;2023-12-04T05:19:42;14.52;;;4.65;;
72601;SDS011;60644;55.858;37.390;2023-12-04T05:22:08;12.83;;;4.47;;
72601;SDS011;60644;55.858;37.390;2023-12-04T05:24:34;12.23;;;4.18;;
72601;SDS011;60644;55.858;37.390;2023-12-04T05:27:01;15.20;;;4.93;;
72601;SDS011;60644;55.858;37.390;2023-12-04T05:29:28;11.02;;;3.70;;
72601;SDS011;60644;55.858;37.390;2023-12-04T05:31:57;15.63;;;4.40;;
72601;SDS011;60644;55.858;37.390;2023-12-04T05:34:23;13.15;;;5.55;;
72601;SDS011;60644;55.858;37.390;2023-12-04T05:36:49;12.38;;;4.38;;
72601;SDS011;60644;55.858;37.390;2023-12-04T05:39:14;11.23;;;3.43;;
72601;SDS011;60644;55.858;37.390;2023-12-04T05:41:40;13.80;;;4.57;;
72601;SDS011;60644;55.858;37.390;2023-12-04T05:44:06;10.47;;;3.67;;
72601;SDS011;60644;55.858;37.390;2023-12-04T05:46:31;14.10;;;4.50;;
72601;SDS011;60644;55.858;37.390;2023-12-04T05:49:00;14.33;;;5.13;;
72601;SDS011;60644;55.858;37.390;2023-12-04T05:51:27;14.13;;;4.97;;
72601;SDS011;60644;55.858;37.390;2023-12-04T05:53:52;12.25;;;4.38;;
72601;SDS011;60644;55.858;37.390;2023-12-04T05:56:18;10.60;;;4.00;;
72601;SDS011;60644;55.858;37.390;2023-12-04T05:58:44;13.63;;;4.80;;
72601;SDS011;60644;55.858;37.390;2023-12-04T06:01:09;10.38;;;3.80;;
72601;SDS011;60644;55.858;37.390;2023-12-04T06:03:35;11.18;;;4.03;;
72601;SDS011;60644;55.858;37.390;2023-12-04T06:06:01;13.48;;;3.53;;
72601;SDS011;60644;55.858;37.390;2023-12-04T06:08:26;14.23;;;4.83;;
72601;SDS011;60644;55.858;37.390;2023-12-04T06:10:52;14.73;;;4.60;;
72601;SDS011;60644;55.858;37.390;2023-12-04T06:13:18;12.75;;;4.97;;
72601;SDS011;60644;55.858;37.390;2023-12-04T06:15:44;14.97;;;5.20;;
72601;SDS011;60644;55.858;37.390;2023-12-04T06:18:10;10.98;;;3.53;;
72601;SDS011;60644;55.858;37.390;2023-12-04T06:20:35;13.38;;;4.72;;
72601;SDS011;60644;55.858;37.390;2023-12-04T06:23:01;16.13;;;5.63;;
72601;SDS011;60644;55.858;37.390;2023-12-04T06:25:27;13.23;;;3.80;;
72601;SDS011;60644;55.858;37.390;2023-12-04T06:27:53;8.33;;;2.97;;
72601;SDS011;60644;55.858;37.390;2023-12-04T06:30:19;13.05;;;4.07;;
72601;SDS011;60644;55.858;37.390;2023-12-04T06:32:45;8.45;;;3.60;;
72601;SDS011;60644;55.858;37.390;2023-12-04T06:35:11;9.23;;;3.03;;
72601;SDS011;60644;55.858;37.390;2023-12-04T06:37:37;15.63;;;4.17;;
72601;SDS011;60644;55.858;37.390;2023-12-04T06:40:07;15.07;;;4.20;;
72601;SDS011;60644;55.858;37.390;2023-12-04T06:42:37;14.32;;;4.45;;
72601;SDS011;60644;55.858;37.390;2023-12-04T06:45:07;12.15;;;4.22;;
72601;SDS011;60644;55.858;37.390;2023-12-04T06:47:39;12.30;;;3.85;;
72601;SDS011;60644;55.858;37.390;2023-12-04T06:50:12;11.73;;;4.17;;
72601;SDS011;60644;55.858;37.390;2023-12-04T06:52:39;13.60;;;4.60;;
72601;SDS011;60644;55.858;37.390;2023-12-04T06:55:05;13.48;;;4.80;;
72601;SDS011;60644;55.858;37.390;2023-12-04T06:57:32;12.32;;;4.07;;
72601;SDS011;60644;55.858;37.390;2023-12-04T07:00:01;13.17;;;4.20;;
72601;SDS011;60644;55.858;37.390;2023-12-04T07:02:31;13.70;;;4.20;;
72601;SDS011;60644;55.858;37.390;2023-12-04T07:04:56;11.23;;;3.78;;
72601;SDS011;60644;55.858;37.390;2023-12-04T07:07:22;12.98;;;4.85;;
72601;SDS011;60644;55.858;37.390;2023-12-04T07:09:48;10.82;;;3.42;;
72601;SDS011;60644;55.858;37.390;2023-12-04T07:12:14;14.30;;;4.93;;
72601;SDS011;60644;55.858;37.390;2023-12-04T07:14:39;18.05;;;4.88;;
72601;SDS011;60644;55.858;37.390;2023-12-04T07:17:05;13.00;;;3.87;;
72601;SDS011;60644;55.858;37.390;2023-12-04T07:19:31;13.07;;;3.88;;
72601;SDS011;60644;55.858;37.390;2023-12-04T07:21:56;11.67;;;3.80;;
72601;SDS011;60644;55.858;37.390;2023-12-04T07:24:22;11.33;;;4.10;;
72601;SDS011;60644;55.858;37.390;2023-12-04T07:26:48;10.88;;;3.75;;
72601;SDS011;60644;55.858;37.390;2023-12-04T07:29:14;11.48;;;3.65;;
72601;SDS011;60644;55.858;37.390;2023-12-04T07:31:41;13.57;;;3.93;;
72601;SDS011;60644;55.858;37.390;2023-12-04T07:34:06;13.55;;;4.03;;
72601;SDS011;60644;55.858;37.390;2023-12-04T07:36:32;11.23;;;3.03;;
72601;SDS011;60644;55.858;37.390;2023-12-04T07:38:58;14.32;;;4.60;;
72601;SDS011;60644;55.858;37.390;2023-12-04T07:41:23;16.27;;;4.70;;
72601;SDS011;60644;55.858;37.390;2023-12-04T07:43:49;15.60;;;3.95;;
72601;SDS011;60644;55.858;37.390;2023-12-04T07:46:15;14.40;;;3.78;;
72601;SDS011;60644;55.858;37.390;2023-12-04T07:48:41;12.27;;;4.40;;
72601;SDS011;60644;55.858;37.390;2023-12-04T07:51:09;11.10;;;3.95;;
72601;SDS011;60644;55.858;37.390;2023-12-04T07:53:35;9.27;;;3.80;;
72601;SDS011;60644;55.858;37.390;2023-12-04T07:56:01;16.90;;;5.50;;
72601;SDS011;60644;55.858;37.390;2023-12-04T07:58:28;13.32;;;4.00;;
72601;SDS011;60644;55.858;37.390;2023-12-04T08:00:54;16.50;;;6.00;;
72601;SDS011;60644;55.858;37.390;2023-12-04T08:03:20;14.60;;;5.35;;
72601;SDS011;60644;55.858;37.390;2023-12-04T08:05:46;15.65;;;5.47;;
72601;SDS011;60644;55.858;37.390;2023-12-04T08:08:11;11.33;;;4.03;;
72601;SDS011;60644;55.858;37.390;2023-12-04T08:10:37;17.38;;;5.25;;
72601;SDS011;60644;55.858;37.390;2023-12-04T08:13:03;15.43;;;5.63;;
72601;SDS011;60644;55.858;37.390;2023-12-04T08:15:29;11.70;;;3.88;;
72601;SDS011;60644;55.858;37.390;2023-12-04T08:17:56;16.98;;;5.05;;
72601;SDS011;60644;55.858;37.390;2023-12-04T08:20:23;14.03;;;4.50;;
72601;SDS011;60644;55.858;37.390;2023-12-04T08:22:49;18.73;;;5.95;;
72601;SDS011;60644;55.858;37.390;2023-12-04T08:25:15;18.85;;;6.72;;
72601;SDS011;60644;55.858;37.390;2023-12-04T08:27:41;11.20;;;3.97;;
72601;SDS011;60644;55.858;37.390;2023-12-04T08:30:07;14.67;;;4.83;;
72601;SDS011;60644;55.858;37.390;2023-12-04T08:32:33;10.02;;;3.20;;
72601;SDS011;60644;55.858;37.390;2023-12-04T08:34:59;14.43;;;4.75;;
72601;SDS011;60644;55.858;37.390;2023-12-04T08:37:33;11.68;;;4.65;;
72601;SDS011;60644;55.858;37.390;2023-12-04T08:39:58;12.33;;;4.53;;
72601;SDS011;60644;55.858;37.390;2023-12-04T08:42:25;12.45;;;3.83;;
72601;SDS011;60644;55.858;37.390;2023-12-04T08:44:51;13.52;;;4.60;;
72601;SDS011;60644;55.858;37.390;2023-12-04T08:47:18;13.00;;;4.50;;
72601;SDS011;60644;55.858;37.390;2023-12-04T08:49:43;11.47;;;3.83;;
72601;SDS011;60644;55.858;37.390;2023-12-04T08:52:09;14.40;;;4.40;;
72601;SDS011;60644;55.858;37.390;2023-12-04T08:54:39;13.30;;;4.55;;
72601;SDS011;60644;55.858;37.390;2023-12-04T08:57:08;16.97;;;4.53;;
72601;SDS011;60644;55.858;37.390;2023-12-04T08:59:35;14.40;;;4.40;;
72601;SDS011;60644;55.858;37.390;2023-12-04T09:02:04;14.35;;;5.47;;
72601;SDS011;60644;55.858;37.390;2023-12-04T09:04:30;12.68;;;4.57;;
72601;SDS011;60644;55.858;37.390;2023-12-04T09:06:57;15.35;;;4.68;;
72601;SDS011;60644;55.858;37.390;2023-12-04T09:09:22;12.87;;;5.23;;
72601;SDS011;60644;55.858;37.390;2023-12-04T09:11:48;12.50;;;5.10;;
72601;SDS011;60644;55.858;37.390;2023-12-04T09:14:14;12.90;;;4.43;;
72601;SDS011;60644;55.858;37.390;2023-12-04T09:16:40;16.27;;;5.35;;
72601;SDS011;60644;55.858;37.390;2023-12-04T09:19:05;15.03;;;5.13;;
72601;SDS011;60644;55.858;37.390;2023-12-04T09:21:31;12.68;;;3.55;;
72601;SDS011;60644;55.858;37.390;2023-12-04T09:23:57;11.60;;;4.00;;
72601;SDS011;60644;55.858;37.390;2023-12-04T09:26:23;10.90;;;4.32;;
72601;SDS011;60644;55.858;37.390;2023-12-04T09:28:49;16.02;;;4.80;;
72601;SDS011;60644;55.858;37.390;2023-12-04T09:31:15;14.77;;;4.77;;
72601;SDS011;60644;55.858;37.390;2023-12-04T09:33:41;14.20;;;4.28;;
72601;SDS011;60644;55.858;37.390;2023-12-04T09:36:07;18.35;;;7.40;;
72601;SDS011;60644;55.858;37.390;2023-12-04T09:38:33;10.47;;;3.50;;
72601;SDS011;60644;55.858;37.390;2023-12-04T09:41:00;11.60;;;3.17;;
72601;SDS011;60644;55.858;37.390;2023-12-04T09:43:30;10.98;;;3.80;;
72601;SDS011;60644;55.858;37.390;2023-12-04T09:45:57;12.45;;;4.60;;
72601;SDS011;60644;55.858;37.390;2023-12-04T09:48:23;12.40;;;4.38;;
72601;SDS011;60644;55.858;37.390;2023-12-04T09:50:50;12.87;;;3.20;;
72601;SDS011;60644;55.858;37.390;2023-12-04T09:53:16;17.35;;;4.28;;
72601;SDS011;60644;55.858;37.390;2023-12-04T09:55:41;12.27;;;3.95;;
72601;SDS011;60644;55.858;37.390;2023-12-04T09:58:07;13.70;;;4.70;;
72601;SDS011;60644;55.858;37.390;2023-12-04T10:00:34;15.40;;;4.90;;
72601;SDS011;60644;55.858;37.390;2023-12-04T10:03:00;19.27;;;5.00;;
72601;SDS011;60644;55.858;37.390;2023-12-04T10:05:25;16.23;;;5.37;;
72601;SDS011;60644;55.858;37.390;2023-12-04T10:07:51;13.70;;;4.50;;
72601;SDS011;60644;55.858;37.390;2023-12-04T10:10:17;14.38;;;5.20;;
72601;SDS011;60644;55.858;37.390;2023-12-04T10:12:43;13.68;;;5.05;;
72601;SDS011;60644;55.858;37.390;2023-12-04T10:15:10;13.10;;;4.20;;
72601;SDS011;60644;55.858;37.390;2023-12-04T10:17:37;15.93;;;5.82;;
72601;SDS011;60644;55.858;37.390;2023-12-04T10:20:04;17.55;;;5.13;;
72601;SDS011;60644;55.858;37.390;2023-12-04T10:22:36;15.30;;;5.32;;
72601;SDS011;60644;55.858;37.390;2023-12-04T10:25:23;20.30;;;5.43;;
72601;SDS011;60644;55.858;37.390;2023-12-04T10:27:51;17.70;;;5.27;;
72601;SDS011;60644;55.858;37.390;2023-12-04T10:30:28;13.43;;;4.95;;
72601;SDS011;60644;55.858;37.390;2023-12-04T10:32:59;15.02;;;4.57;;
72601;SDS011;60644;55.858;37.390;2023-12-04T10:35:29;14.65;;;4.47;;
72601;SDS011;60644;55.858;37.390;2023-12-04T10:37:59;16.27;;;5.22;;
72601;SDS011;60644;55.858;37.390;2023-12-04T10:40:26;14.83;;;5.13;;
72601;SDS011;60644;55.858;37.390;2023-12-04T10:43:06;17.23;;;4.82;;
72601;SDS011;60644;55.858;37.390;2023-12-04T10:45:39;17.52;;;6.10;;
72601;SDS011;60644;55.858;37.390;2023-12-04T10:48:06;16.02;;;5.32;;
72601;SDS011;60644;55.858;37.390;2023-12-04T10:50:36;14.23;;;4.95;;
72601;SDS011;60644;55.858;37.390;2023-12-04T10:53:08;17.97;;;5.63;;
72601;SDS011;60644;55.858;37.390;2023-12-04T10:55:34;17.60;;;6.22;;
72601;SDS011;60644;55.858;37.390;2023-12-04T10:58:01;16.92;;;5.28;;
72601;SDS011;60644;55.858;37.390;2023-12-04T11:00:30;15.10;;;4.22;;
72601;SDS011;60644;55.858;37.390;2023-12-04T11:02:56;13.53;;;4.70;;
72601;SDS011;60644;55.858;37.390;2023-12-04T11:05:27;17.95;;;5.55;;
72601;SDS011;60644;55.858;37.390;2023-12-04T11:07:54;20.13;;;6.68;;
72601;SDS011;60644;55.858;37.390;2023-12-04T11:10:28;17.45;;;5.47;;
72601;SDS011;60644;55.858;37.390;2023-12-04T11:16:00;18.80;;;6.23;;
72601;SDS011;60644;55.858;37.390;2023-12-04T11:18:30;15.00;;;5.13;;
72601;SDS011;60644;55.858;37.390;2023-12-04T11:21:04;17.25;;;5.47;;
72601;SDS011;60644;55.858;37.390;2023-12-04T11:23:32;15.55;;;5.72;;
72601;SDS011;60644;55.858;37.390;2023-12-04T11:26:02;15.75;;;5.38;;
72601;SDS011;60644;55.858;37.390;2023-12-04T11:28:29;16.20;;;4.93;;
72601;SDS011;60644;55.858;37.390;2023-12-04T11:30:56;12.60;;;4.40;;
72601;SDS011;60644;55.858;37.390;2023-12-04T11:33:26;17.13;;;4.90;;
72601;SDS011;60644;55.858;37.390;2023-12-04T11:36:05;12.65;;;4.93;;
72601;SDS011;60644;55.858;37.390;2023-12-04T11:38:31;15.23;;;4.60;;
72601;SDS011;60644;55.858;37.390;2023-12-04T11:40:58;8.90;;;2.87;;
72601;SDS011;60644;55.858;37.390;2023-12-04T11:43:25;12.05;;;4.63;;
72601;SDS011;60644;55.858;37.390;2023-12-04T11:46:07;14.45;;;5.47;;
72601;SDS011;60644;55.858;37.390;2023-12-04T11:48:34;16.25;;;4.75;;
72601;SDS011;60644;55.858;37.390;2023-12-04T11:50:59;12.60;;;4.28;;
72601;SDS011;60644;55.858;37.390;2023-12-04T11:53:29;13.90;;;4.53;;
72601;SDS011;60644;55.858;37.390;2023-12-04T11:55:55;15.70;;;5.07;;
72601;SDS011;60644;55.858;37.390;2023-12-04T11:58:24;17.00;;;6.03;;
72601;SDS011;60644;55.858;37.390;2023-12-04T12:00:52;12.55;;;3.67;;
72601;SDS011;60644;55.858;37.390;2023-12-04T12:03:27;17.57;;;6.50;;
72601;SDS011;60644;55.858;37.390;2023-12-04T12:05:53;17.75;;;5.82;;
72601;SDS011;60644;55.858;37.390;2023-12-04T12:08:20;14.95;;;5.28;;
72601;SDS011;60644;55.858;37.390;2023-12-04T12:10:48;16.95;;;4.63;;
72601;SDS011;60644;55.858;37.390;2023-12-04T12:13:14;16.07;;;5.37;;
72601;SDS011;60644;55.858;37.390;2023-12-04T12:15:40;11.93;;;3.95;;
72601;SDS011;60644;55.858;37.390;2023-12-04T12:18:05;15.13;;;5.20;;
72601;SDS011;60644;55.858;37.390;2023-12-04T12:20:31;14.70;;;4.80;;
72601;SDS011;60644;55.858;37.390;2023-12-04T12:22:58;15.38;;;4.78;;
72601;SDS011;60644;55.858;37.390;2023-12-04T12:25:24;14.05;;;4.28;;
72601;SDS011;60644;55.858;37.390;2023-12-04T12:27:51;16.73;;;5.47;;
72601;SDS011;60644;55.858;37.390;2023-12-04T12:30:17;15.25;;;5.30;;
72601;SDS011;60644;55.858;37.390;2023-12-04T12:32:43;17.83;;;6.60;;
72601;SDS011;60644;55.858;37.390;2023-12-04T12:35:11;17.15;;;5.60;;
72601;SDS011;60644;55.858;37.390;2023-12-04T12:37:38;17.88;;;5.88;;
72601;SDS011;60644;55.858;37.390;2023-12-04T12:40:14;19.70;;;6.30;;
72601;SDS011;60644;55.858;37.390;2023-12-04T12:42:40;16.70;;;5.87;;
72601;SDS011;60644;55.858;37.390;2023-12-04T12:45:09;22.70;;;6.38;;
72601;SDS011;60644;55.858;37.390;2023-12-04T12:47:37;18.35;;;6.95;;
72601;SDS011;60644;55.858;37.390;2023-12-04T12:50:05;18.00;;;6.28;;
72601;SDS011;60644;55.858;37.390;2023-12-04T12:52:39;19.30;;;5.82;;
72601;SDS011;60644;55.858;37.390;2023-12-04T12:55:06;16.77;;;5.90;;
72601;SDS011;60644;55.858;37.390;2023-12-04T12:57:33;17.40;;;5.32;;
72601;SDS011;60644;55.858;37.390;2023-12-04T12:59:59;19.27;;;4.90;;
72601;SDS011;60644;55.858;37.390;2023-12-04T13:02:25;17.05;;;5.32;;
72601;SDS011;60644;55.858;37.390;2023-12-04T13:04:51;15.80;;;4.77;;
72601;SDS011;60644;55.858;37.390;2023-12-04T13:07:17;19.63;;;6.38;;
72601;SDS011;60644;55.858;37.390;2023-12-04T13:09:44;20.52;;;6.85;;
72601;SDS011;60644;55.858;37.390;2023-12-04T13:12:10;16.70;;;4.93;;
72601;SDS011;60644;55.858;37.390;2023-12-04T13:14:36;23.15;;;5.88;;
72601;SDS011;60644;55.858;37.390;2023-12-04T13:17:02;20.23;;;8.38;;
72601;SDS011;60644;55.858;37.390;2023-12-04T13:19:28;15.30;;;5.00;;
72601;SDS011;60644;55.858;37.390;2023-12-04T13:21:54;19.97;;;6.07;;
72601;SDS011;60644;55.858;37.390;2023-12-04T13:24:20;16.58;;;5.13;;
72601;SDS011;60644;55.858;37.390;2023-12-04T13:26:48;15.63;;;5.68;;
72601;SDS011;60644;55.858;37.390;2023-12-04T13:29:14;18.08;;;6.15;;
72601;SDS011;60644;55.858;37.390;2023-12-04T13:31:44;18.48;;;6.30;;
72601;SDS011;60644;55.858;37.390;2023-12-04T13:34:12;14.27;;;5.10;;
72601;SDS011;60644;55.858;37.390;2023-12-04T13:36:38;16.13;;;6.03;;
72601;SDS011;60644;55.858;37.390;2023-12-04T13:39:04;18.40;;;5.53;;
72601;SDS011;60644;55.858;37.390;2023-12-04T13:41:33;18.30;;;5.87;;
72601;SDS011;60644;55.858;37.390;2023-12-04T13:44:17;17.30;;;5.25;;
72601;SDS011;60644;55.858;37.390;2023-12-04T13:46:43;16.40;;;5.47;;
72601;SDS011;60644;55.858;37.390;2023-12-04T13:49:08;16.63;;;5.68;;
72601;SDS011;60644;55.858;37.390;2023-12-04T13:51:35;19.60;;;6.90;;
72601;SDS011;60644;55.858;37.390;2023-12-04T13:54:05;16.10;;;5.38;;
72601;SDS011;60644;55.858;37.390;2023-12-04T13:56:43;20.40;;;5.45;;
72601;SDS011;60644;55.858;37.390;2023-12-04T13:59:22;17.83;;;5.97;;
72601;SDS011;60644;55.858;37.390;2023-12-04T14:01:49;19.40;;;6.97;;
72601;SDS011;60644;55.858;37.390;2023-12-04T14:04:16;15.50;;;6.20;;
72601;SDS011;60644;55.858;37.390;2023-12-04T14:06:42;15.52;;;5.50;;
72601;SDS011;60644;55.858;37.390;2023-12-04T14:09:08;18.35;;;6.25;;
72601;SDS011;60644;55.858;37.390;2023-12-04T14:11:41;21.07;;;5.90;;
72601;SDS011;60644;55.858;37.390;2023-12-04T14:14:08;17.60;;;5.20;;
72601;SDS011;60644;55.858;37.390;2023-12-04T14:16:34;15.88;;;5.75;;
72601;SDS011;60644;55.858;37.390;2023-12-04T14:18:59;18.23;;;5.90;;
72601;SDS011;60644;55.858;37.390;2023-12-04T14:21:25;17.67;;;6.18;;
72601;SDS011;60644;55.858;37.390;2023-12-04T14:23:51;16.73;;;6.97;;